Time;durP1;ratioP1;P1;durP2;ratioP2;P2;SDS_P1;SDS_P2;PMS_P1;PMS_P2;Temp;Humidity;BMP_temperature;BMP_pressure;BME280_temperature;BME280_humidity;BME280_pressure;Samples;Min_cycle;Max_cycle;Signal;HPM_P1;HPM_P2
2024/02/19 00:01:02;;;;;;;36.50;23.85;;;154.50;2252.80;;;;;;4834390;29;20022;-75
2024/02/19 00:03:28;;;;;;;45.83;28.55;;;154.50;2252.80;;;;;;4827974;29;20018;-72
2024/02/19 00:05:55;;;;;;;50.30;28.98;;;154.40;2252.80;;;;;;4839943;29;20082;-71
2024/02/19 00:08:21;;;;;;;74.07;40.50;;;154.40;2252.80;;;;;;4839062;29;20017;-70
2024/02/19 00:10:47;;;;;;;56.95;34.05;;;154.40;2252.80;;;;;;4839925;29;20086;-76
2024/02/19 00:13:13;;;;;;;102.10;57.83;;;154.40;2252.80;;;;;;4839873;29;20045;-71
2024/02/19 00:15:38;;;;;;;81.70;47.92;;;154.40;2252.80;;;;;;4839758;29;20125;-72
2024/02/19 00:18:06;;;;;;;57.53;36.08;;;179.90;2252.80;;;;;;4839052;29;20102;-77
2024/02/19 00:20:32;;;;;;;76.40;47.40;;;154.50;2252.80;;;;;;4839393;29;20053;-70
2024/02/19 00:22:57;;;;;;;38.00;24.55;;;154.40;2252.80;;;;;;4838912;29;20131;-69
2024/02/19 00:25:23;;;;;;;41.92;27.02;;;154.40;2252.80;;;;;;4839257;29;20034;-71
2024/02/19 00:27:49;;;;;;;47.90;31.10;;;154.40;2252.80;;;;;;4837709;29;20163;-69
2024/02/19 00:30:16;;;;;;;50.15;32.28;;;154.30;2252.80;;;;;;4823203;29;20038;-74
2024/02/19 00:32:42;;;;;;;59.33;35.20;;;154.30;2252.80;;;;;;4837508;29;20500;-71
2024/02/19 00:35:08;;;;;;;61.70;37.13;;;154.30;2252.80;;;;;;4830781;29;20023;-72
2024/02/19 00:37:33;;;;;;;58.33;35.30;;;154.30;2252.80;;;;;;4826247;29;20029;-72
2024/02/19 00:39:59;;;;;;;160.80;84.70;;;154.20;2252.80;;;;;;4839927;29;20799;-85
2024/02/19 00:42:25;;;;;;;128.45;66.97;;;154.20;2252.80;;;;;;4838427;29;20030;-73
2024/02/19 00:44:51;;;;;;;62.58;30.35;;;154.20;2252.80;;;;;;4839563;29;20036;-77
2024/02/19 00:47:17;;;;;;;53.78;30.17;;;154.00;2252.80;;;;;;4839414;29;20049;-74
2024/02/19 00:49:43;;;;;;;38.90;27.15;;;153.90;2252.80;;;;;;4837632;29;20409;-70
2024/02/19 00:52:09;;;;;;;39.25;23.15;;;;;;;;;;4838913;29;20422;-80
2024/02/19 00:54:35;;;;;;;39.20;25.67;;;;;;;;;;4839071;29;20076;-79
2024/02/19 00:57:01;;;;;;;37.45;25.63;;;;;;;;;;4839058;29;20042;-72
2024/02/19 00:59:27;;;;;;;29.45;18.67;;;;;;;;;;4838828;29;20370;-78
2024/02/19 01:01:53;;;;;;;29.73;20.20;;;;;;;;;;4839077;29;20030;-81
2024/02/19 01:04:19;;;;;;;39.65;24.38;;;;;;;;;;4839133;29;20050;-76
2024/02/19 01:06:45;;;;;;;30.92;21.77;;;;;;;;;;4839388;29;20029;-74
2024/02/19 01:09:12;;;;;;;34.35;23.67;;;;;;;;;;4839095;29;20030;-81
2024/02/19 01:11:38;;;;;;;33.97;19.45;;;;;;;;;;4838896;29;20045;-84
2024/02/19 01:14:05;;;;;;;27.20;18.08;;;;;;;;;;4829013;29;20037;-80
2024/02/19 01:16:32;;;;;;;22.90;15.18;;;;;;;;;;4823068;29;20041;-75
2024/02/19 01:18:58;;;;;;;70.30;41.05;;;153.90;2252.80;;;;;;4822189;29;20109;-73
2024/02/19 01:21:24;;;;;;;73.25;36.42;;;153.70;2252.80;;;;;;4825855;29;20151;-79
2024/02/19 01:23:49;;;;;;;38.25;22.77;;;153.70;2252.80;;;;;;4839357;29;20034;-73
2024/02/19 01:26:22;;;;;;;94.13;48.50;;;153.60;2252.80;;;;;;4826704;29;20026;-83
2024/02/19 01:28:48;;;;;;;104.13;54.38;;;128.90;2252.80;;;;;;4838444;29;20030;-71
2024/02/19 01:31:14;;;;;;;66.68;38.88;;;128.90;2252.80;;;;;;4837471;29;20400;-70
2024/02/19 01:33:40;;;;;;;58.92;33.63;;;128.90;2252.80;;;;;;4827741;29;20561;-71
2024/02/19 01:36:07;;;;;;;53.80;34.40;;;153.60;2252.80;;;;;;4834236;29;20113;-70
2024/02/19 01:38:32;;;;;;;64.80;37.05;;;128.90;2252.80;;;;;;4837759;29;20377;-75
2024/02/19 01:40:58;;;;;;;62.60;37.47;;;128.90;2252.80;;;;;;4837653;29;20422;-77
2024/02/19 01:43:24;;;;;;;42.03;24.75;;;128.90;2252.80;;;;;;4839004;29;20026;-79
2024/02/19 01:45:50;;;;;;;33.53;21.42;;;128.90;2252.80;;;;;;4838574;29;20036;-73
2024/02/19 01:48:16;;;;;;;26.60;16.48;;;128.80;2252.80;;;;;;4838819;29;20030;-76
2024/02/19 01:50:45;;;;;;;30.92;18.65;;;128.70;2252.80;;;;;;4838550;29;20030;-78
2024/02/19 01:53:12;;;;;;;22.45;15.45;;;128.60;2252.80;;;;;;4838361;29;20030;-84
2024/02/19 01:55:40;;;;;;;23.35;13.68;;;128.60;2252.80;;;;;;4838373;29;20049;-74
2024/02/19 01:58:07;;;;;;;19.80;12.57;;;128.40;2252.80;;;;;;4838415;29;20037;-70
2024/02/19 02:00:33;;;;;;;16.13;11.82;;;128.40;2252.80;;;;;;4838044;29;20034;-76
2024/02/19 02:03:03;;;;;;;27.20;16.08;;;128.40;2252.80;;;;;;4838604;29;20546;-75
2024/02/19 02:05:28;;;;;;;24.70;14.82;;;128.50;2252.80;;;;;;4838388;29;20026;-69
2024/02/19 02:07:54;;;;;;;19.75;13.40;;;128.50;2252.80;;;;;;4838456;29;20030;-74
2024/02/19 02:10:20;;;;;;;41.30;24.75;;;128.50;2252.80;;;;;;4838170;29;20033;-71
2024/02/19 02:12:46;;;;;;;38.00;24.15;;;128.50;2252.80;;;;;;4838489;29;20109;-83
2024/02/19 02:15:11;;;;;;;35.40;21.30;;;128.40;2252.80;;;;;;4845459;29;20089;-80
2024/02/19 02:17:37;;;;;;;31.63;18.67;;;128.40;2252.80;;;;;;4842993;29;20038;-81
2024/02/19 02:20:07;;;;;;;31.73;20.88;;;128.40;2252.80;;;;;;4838223;29;20030;-84
2024/02/19 02:22:35;;;;;;;44.08;26.85;;;128.30;2252.80;;;;;;4837721;29;20034;-76
2024/02/19 02:25:01;;;;;;;52.63;29.38;;;128.30;2252.80;;;;;;4838213;29;20477;-81
2024/02/19 02:27:28;;;;;;;63.60;32.15;;;128.30;2252.80;;;;;;4838153;29;20363;-84
2024/02/19 02:29:54;;;;;;;57.20;32.03;;;128.20;2252.80;;;;;;4838307;29;20034;-79
2024/02/19 02:32:20;;;;;;;63.45;29.98;;;128.30;2252.80;;;;;;4838414;29;20030;-79
2024/02/19 02:34:46;;;;;;;38.55;23.40;;;128.30;2252.80;;;;;;4838409;29;20040;-85
2024/02/19 02:37:13;;;;;;;42.30;24.73;;;128.20;2252.80;;;;;;4838097;29;20038;-79
2024/02/19 02:39:39;;;;;;;41.30;24.42;;;128.20;2252.80;;;;;;4838302;29;20036;-81
2024/02/19 02:42:07;;;;;;;34.55;20.42;;;128.20;2252.80;;;;;;4838113;29;20436;-80
2024/02/19 02:44:33;;;;;;;27.13;18.17;;;128.20;2252.80;;;;;;4838184;29;20032;-76
2024/02/19 02:46:59;;;;;;;27.00;17.42;;;128.10;2252.80;;;;;;4838185;29;20038;-77
2024/02/19 02:49:25;;;;;;;33.45;22.45;;;128.10;2252.80;;;;;;4838267;29;20041;-85
2024/02/19 02:51:50;;;;;;;42.08;25.83;;;128.00;2252.80;;;;;;4837572;29;20417;-78
2024/02/19 02:54:16;;;;;;;51.63;28.90;;;128.10;2252.80;;;;;;4837960;29;20058;-84
2024/02/19 02:56:43;;;;;;;37.83;23.08;;;128.10;2252.80;;;;;;4837470;29;20030;-85
2024/02/19 02:59:08;;;;;;;35.55;22.65;;;128.10;2252.80;;;;;;4838155;29;20030;-76
2024/02/19 03:01:34;;;;;;;42.33;25.88;;;128.10;2252.80;;;;;;4837773;29;20543;-80
2024/02/19 03:04:00;;;;;;;42.80;27.13;;;128.10;2252.80;;;;;;4838207;29;20049;-84
2024/02/19 03:06:26;;;;;;;45.28;32.13;;;128.10;2252.80;;;;;;4837845;29;20389;-83
2024/02/19 03:08:51;;;;;;;27.30;16.98;;;128.10;2252.80;;;;;;4829925;29;20035;-79
2024/02/19 03:11:17;;;;;;;23.25;14.15;;;128.00;2252.80;;;;;;4834021;29;20517;-75
2024/02/19 03:13:44;;;;;;;19.77;12.50;;;103.30;2227.20;;;;;;4837903;29;20034;-82
2024/02/19 03:16:09;;;;;;;24.77;16.20;;;103.20;2227.20;;;;;;4838885;29;20129;-71
2024/02/19 03:18:35;;;;;;;30.80;22.65;;;103.10;2227.20;;;;;;4841440;29;20098;-71
2024/02/19 03:21:03;;;;;;;25.25;17.38;;;103.10;2227.20;;;;;;4841565;29;20026;-76
2024/02/19 03:23:29;;;;;;;23.50;15.13;;;103.00;2227.20;;;;;;4841134;29;20040;-83
2024/02/19 03:25:54;;;;;;;31.52;21.30;;;103.10;2227.20;;;;;;4841330;29;20128;-82
2024/02/19 03:28:20;;;;;;;31.20;23.60;;;103.00;2227.20;;;;;;4841066;29;20065;-76
2024/02/19 03:30:46;;;;;;;32.00;22.33;;;103.00;2227.20;;;;;;4840797;29;20144;-78
2024/02/19 03:33:12;;;;;;;26.08;17.00;;;103.00;2227.20;;;;;;4841082;29;20086;-73
2024/02/19 03:35:38;;;;;;;25.83;17.42;;;102.90;2227.20;;;;;;4840806;29;20528;-73
2024/02/19 03:38:04;;;;;;;22.25;14.15;;;103.00;2227.20;;;;;;4840827;29;20052;-72
2024/02/19 03:40:30;;;;;;;33.97;20.75;;;103.00;2227.20;;;;;;4840757;29;20481;-70
2024/02/19 03:42:55;;;;;;;31.38;16.70;;;103.00;2227.20;;;;;;4840761;29;20037;-69
2024/02/19 03:45:21;;;;;;;23.00;15.93;;;103.00;2227.20;;;;;;4840489;29;20125;-73
2024/02/19 03:47:47;;;;;;;26.00;17.83;;;102.90;2227.20;;;;;;4824263;29;20046;-72
2024/02/19 03:50:14;;;;;;;17.33;11.80;;;102.90;2227.20;;;;;;4840489;29;20553;-69
2024/02/19 03:52:40;;;;;;;24.55;18.65;;;102.70;2227.20;;;;;;4829856;29;20050;-69
2024/02/19 03:55:06;;;;;;;24.85;17.33;;;102.80;2227.20;;;;;;4840807;29;20121;-71
2024/02/19 03:57:32;;;;;;;25.15;17.38;;;102.80;2227.20;;;;;;4840056;29;20552;-72
2024/02/19 03:59:57;;;;;;;27.42;20.77;;;102.70;2227.20;;;;;;4840451;29;20033;-74
2024/02/19 04:02:24;;;;;;;25.20;14.93;;;102.80;2227.20;;;;;;4840388;29;20109;-67
2024/02/19 04:04:49;;;;;;;17.80;11.23;;;102.60;2227.20;;;;;;4840575;29;20469;-75
2024/02/19 04:07:15;;;;;;;26.38;16.63;;;102.70;2227.20;;;;;;4840447;29;20026;-84
2024/02/19 04:09:41;;;;;;;16.38;9.27;;;102.60;2227.20;;;;;;4840021;29;20053;-76
2024/02/19 04:12:07;;;;;;;12.52;8.32;;;102.60;2227.20;;;;;;4840696;29;20034;-76
2024/02/19 04:14:33;;;;;;;14.73;8.90;;;102.40;2227.20;;;;;;4840196;29;20346;-72
2024/02/19 04:16:59;;;;;;;19.58;12.35;;;102.40;2227.20;;;;;;4823871;29;20049;-79
2024/02/19 04:19:27;;;;;;;21.40;14.07;;;102.50;2227.20;;;;;;4840239;29;20376;-71
2024/02/19 04:21:53;;;;;;;13.80;10.05;;;102.40;2227.20;;;;;;4840006;29;20026;-70
2024/02/19 04:24:19;;;;;;;20.40;11.05;;;77.70;2227.20;;;;;;4839941;29;20117;-79
2024/02/19 04:26:44;;;;;;;18.52;11.60;;;102.60;2227.20;;;;;;4839384;29;20026;-72
2024/02/19 04:29:10;;;;;;;35.42;20.88;;;102.40;2227.20;;;;;;4839181;29;20086;-76
2024/02/19 04:31:37;;;;;;;16.38;10.77;;;102.50;2227.20;;;;;;4839896;29;20018;-76
2024/02/19 04:34:03;;;;;;;15.32;11.25;;;102.50;2227.20;;;;;;4840013;29;20030;-71
2024/02/19 04:36:29;;;;;;;14.52;10.68;;;102.50;2227.20;;;;;;4832090;29;20445;-72
2024/02/19 04:38:55;;;;;;;19.48;11.05;;;102.40;2227.20;;;;;;4842993;29;20113;-68
2024/02/19 04:41:20;;;;;;;20.33;14.73;;;77.70;2227.20;;;;;;4839887;29;20030;-73
2024/02/19 04:43:46;;;;;;;14.75;10.23;;;77.60;2227.20;;;;;;4839763;29;20538;-74
2024/02/19 04:46:12;;;;;;;14.98;9.82;;;77.70;2227.20;;;;;;4839743;29;20533;-75
2024/02/19 04:48:38;;;;;;;13.68;8.50;;;77.50;2227.20;;;;;;4839669;29;20037;-73
2024/02/19 04:51:05;;;;;;;27.77;15.77;;;77.60;2227.20;;;;;;4823064;29;20068;-77
2024/02/19 04:53:31;;;;;;;56.53;29.30;;;77.60;2227.20;;;;;;4839176;29;20070;-78
2024/02/19 04:55:56;;;;;;;16.05;10.52;;;77.60;2227.20;;;;;;4839695;29;20078;-79
2024/02/19 04:58:23;;;;;;;13.38;8.82;;;77.50;2227.20;;;;;;4839416;29;20556;-83
2024/02/19 05:00:49;;;;;;;15.25;9.75;;;77.40;2227.20;;;;;;4839595;29;20592;-75
2024/02/19 05:03:15;;;;;;;15.07;9.70;;;77.60;2227.20;;;;;;4839291;29;20045;-83
2024/02/19 05:05:41;;;;;;;16.45;13.05;;;77.70;2227.20;;;;;;4839615;29;20041;-73
2024/02/19 05:08:07;;;;;;;16.63;10.40;;;77.60;2227.20;;;;;;4839132;29;20041;-72
2024/02/19 05:10:33;;;;;;;22.33;18.58;;;77.50;2227.20;;;;;;4839187;29;20026;-78
2024/02/19 05:12:59;;;;;;;18.20;12.05;;;77.60;2227.20;;;;;;4839252;29;20033;-77
2024/02/19 05:15:25;;;;;;;16.70;10.52;;;77.50;2227.20;;;;;;4839654;29;20038;-72
2024/02/19 05:17:50;;;;;;;30.60;19.05;;;77.60;2227.20;;;;;;4839221;29;20037;-74
2024/02/19 05:20:17;;;;;;;16.88;11.25;;;77.60;2227.20;;;;;;4839259;29;20781;-82
2024/02/19 05:22:43;;;;;;;14.95;10.02;;;77.50;2227.20;;;;;;4838806;29;20076;-83
2024/02/19 05:25:09;;;;;;;14.10;10.05;;;77.60;2227.20;;;;;;4839370;29;20075;-79
2024/02/19 05:27:34;;;;;;;21.33;13.52;;;77.60;2227.20;;;;;;4838592;29;20026;-79
2024/02/19 05:30:01;;;;;;;23.17;14.77;;;77.60;2227.20;;;;;;4838656;29;20109;-76
2024/02/19 05:32:26;;;;;;;19.65;11.80;;;77.60;2227.20;;;;;;4832911;29;20149;-75
2024/02/19 05:34:52;;;;;;;23.08;13.80;;;77.60;2227.20;;;;;;4833589;29;20509;-77
2024/02/19 05:37:18;;;;;;;15.93;10.35;;;77.60;2227.20;;;;;;4838844;29;20033;-80
2024/02/19 05:39:44;;;;;;;25.38;15.90;;;77.60;2227.20;;;;;;4838275;29;20036;-81
2024/02/19 05:42:09;;;;;;;19.67;11.43;;;77.60;2227.20;;;;;;4838744;29;20029;-80
2024/02/19 05:44:35;;;;;;;19.90;10.38;;;77.70;2227.20;;;;;;4830903;29;20031;-71
2024/02/19 05:47:01;;;;;;;14.30;8.93;;;77.70;2227.20;;;;;;4826459;29;20018;-80
2024/02/19 05:49:27;;;;;;;18.40;11.32;;;102.40;2227.20;;;;;;4834087;29;20528;-75
2024/02/19 05:51:53;;;;;;;28.67;18.45;;;77.70;2227.20;;;;;;4838245;29;20504;-83
2024/02/19 05:54:22;;;;;;;77.82;41.75;;;102.50;2227.20;;;;;;4838598;29;20093;-82
2024/02/19 05:56:48;;;;;;;37.55;21.58;;;102.60;2227.20;;;;;;4838633;29;20542;-68
2024/02/19 05:59:14;;;;;;;25.20;17.10;;;102.70;2227.20;;;;;;4838586;29;20034;-69
2024/02/19 06:01:40;;;;;;;32.63;19.38;;;102.50;2227.20;;;;;;4838761;29;20532;-72
2024/02/19 06:04:05;;;;;;;27.80;18.70;;;102.50;2227.20;;;;;;4838760;29;20389;-68
2024/02/19 06:06:31;;;;;;;68.68;50.28;;;102.70;2227.20;;;;;;4838398;29;20501;-77
2024/02/19 06:08:57;;;;;;;28.30;17.17;;;102.70;2227.20;;;;;;4838510;29;20363;-68
2024/02/19 06:11:23;;;;;;;54.30;28.10;;;102.80;2227.20;;;;;;4838310;29;20037;-80
2024/02/19 06:13:49;;;;;;;16.33;10.52;;;102.80;2227.20;;;;;;4838233;29;20154;-81
2024/02/19 06:16:15;;;;;;;24.70;14.80;;;102.80;2227.20;;;;;;4838008;29;20706;-83
2024/02/19 06:18:41;;;;;;;26.13;13.82;;;102.90;2227.20;;;;;;4829698;29;20049;-69
2024/02/19 06:21:07;;;;;;;16.65;11.40;;;103.10;2227.20;;;;;;4835195;29;20525;-81
2024/02/19 06:23:33;;;;;;;33.67;18.65;;;103.20;2227.20;;;;;;4847110;29;20098;-85
2024/02/19 06:25:59;;;;;;;35.03;20.73;;;103.30;2227.20;;;;;;4841665;29;20061;-79
2024/02/19 06:28:25;;;;;;;35.47;16.77;;;128.00;2252.80;;;;;;4838371;29;20064;-75
2024/02/19 06:30:51;;;;;;;23.05;15.00;;;128.10;2252.80;;;;;;4834549;29;20073;-71
2024/02/19 06:33:16;;;;;;;23.10;13.73;;;128.10;2252.80;;;;;;4829037;29;20636;-77
2024/02/19 06:35:42;;;;;;;21.88;14.02;;;128.10;2252.80;;;;;;4819188;29;20054;-68
2024/02/19 06:38:08;;;;;;;25.58;16.52;;;128.10;2252.80;;;;;;4829308;29;20366;-71
2024/02/19 06:40:34;;;;;;;36.40;22.02;;;128.30;2252.80;;;;;;4838376;29;20040;-69
2024/02/19 06:43:01;;;;;;;23.90;17.45;;;128.30;2252.80;;;;;;4837889;29;20453;-81
2024/02/19 06:45:27;;;;;;;25.70;17.27;;;128.30;2252.80;;;;;;4837963;29;20034;-82
2024/02/19 06:47:53;;;;;;;36.13;25.95;;;128.40;2252.80;;;;;;4838113;29;20061;-83
2024/02/19 06:50:18;;;;;;;32.50;20.92;;;128.60;2252.80;;;;;;4838463;29;20062;-82
2024/02/19 06:52:45;;;;;;;42.30;25.98;;;128.70;2252.80;;;;;;4841626;29;20583;-68
2024/02/19 06:55:14;;;;;;;52.03;31.25;;;128.80;2252.80;;;;;;4841623;29;20134;-83
2024/02/19 06:57:40;;;;;;;54.13;34.72;;;153.60;2252.80;;;;;;4837380;29;20042;-75
2024/02/19 07:00:07;;;;;;;48.63;30.13;;;153.70;2252.80;;;;;;4834338;29;20124;-76
2024/02/19 07:02:33;;;;;;;41.80;26.23;;;153.80;2252.80;;;;;;4832738;29;20034;-87
2024/02/19 07:04:59;;;;;;;40.08;25.85;;;154.00;2252.80;;;;;;4841327;29;20504;-81
2024/02/19 07:07:25;;;;;;;24.67;16.25;;;154.00;2252.80;;;;;;4822183;29;20057;-86
2024/02/19 07:09:51;;;;;;;30.48;18.52;;;154.10;2252.80;;;;;;4831862;29;20737;-76
2024/02/19 07:12:18;;;;;;;34.17;23.40;;;154.20;2252.80;;;;;;4832604;29;20034;-79
2024/02/19 07:14:43;;;;;;;27.65;19.45;;;154.20;2252.80;;;;;;4850936;29;20173;-79
2024/02/19 07:17:10;;;;;;;30.85;21.42;;;154.30;2252.80;;;;;;4841573;29;20113;-74
2024/02/19 07:19:35;;;;;;;26.40;17.83;;;154.20;2252.80;;;;;;4841288;29;20452;-79
2024/02/19 07:22:02;;;;;;;39.88;26.70;;;154.30;2252.80;;;;;;4841163;29;20081;-87
2024/02/19 07:24:28;;;;;;;32.22;21.73;;;154.20;2252.80;;;;;;4835259;29;20026;-77
2024/02/19 07:26:54;;;;;;;41.08;29.08;;;154.20;2252.80;;;;;;4838199;29;20113;-86
2024/02/19 07:29:22;;;;;;;57.92;35.53;;;154.40;2252.80;;;;;;4833605;29;20046;-70
2024/02/19 07:31:48;;;;;;;60.72;35.05;;;154.40;2252.80;;;;;;4828165;29;20381;-86
2024/02/19 07:34:15;;;;;;;58.65;40.13;;;179.20;2252.80;;;;;;4829480;29;20029;-70
2024/02/19 07:36:41;;;;;;;52.33;30.67;;;154.50;2252.80;;;;;;4825248;29;20153;-73
2024/02/19 07:39:07;;;;;;;53.45;32.33;;;179.30;2252.80;;;;;;4833375;29;20171;-89
2024/02/19 07:41:32;;;;;;;47.28;28.67;;;179.60;2252.80;;;;;;4829018;29;20042;-82
2024/02/19 07:43:58;;;;;;;75.80;50.00;;;205.10;2252.80;;;;;;4841533;29;20037;-74
2024/02/19 07:46:24;;;;;;;90.00;59.28;;;205.20;2252.80;;;;;;4840998;29;20030;-89
2024/02/19 07:48:49;;;;;;;82.47;59.35;;;230.70;2252.80;;;;;;4841288;29;20030;-89
2024/02/19 07:51:16;;;;;;;90.68;66.88;;;282.50;2278.40;;;;;;4841824;29;20026;-72
2024/02/19 07:53:42;;;;;;;87.53;65.35;;;333.30;2227.20;;;;;;4840885;29;20054;-86
2024/02/19 07:56:08;;;;;;;61.80;50.72;;;384.90;1996.80;;;;;;4841254;29;20076;-90
2024/02/19 07:58:35;;;;;;;55.65;42.20;;;409.80;1894.40;;;;;;4841191;29;20062;-90
2024/02/19 08:01:03;;;;;;;51.20;42.33;;;435.50;1792.00;;;;;;4853580;29;20030;-82
2024/02/19 08:03:29;;;;;;;33.97;27.83;;;435.90;1740.80;;;;;;4841931;29;20038;-90
2024/02/19 08:05:55;;;;;;;28.67;25.63;;;461.60;1664.00;;;;;;4841730;29;20117;-89
2024/02/19 08:08:21;;;;;;;29.40;26.27;;;486.70;1638.40;;;;;;4852163;29;20054;-80
2024/02/19 08:10:48;;;;;;;33.28;28.40;;;487.20;1612.80;;;;;;4852815;29;20098;-83
2024/02/19 08:13:14;;;;;;;33.47;30.17;;;512.90;1536.00;;;;;;4851119;29;20095;-75
2024/02/19 08:15:41;;;;;;;145.05;131.20;;;512.80;1536.00;;;;;;4840905;29;20668;-78
2024/02/19 08:18:08;;;;;;;92.30;83.13;;;537.90;1510.40;;;;;;4828634;29;20029;-80
2024/02/19 08:20:36;;;;;;;80.22;68.72;;;588.80;1459.20;;;;;;4840339;29;20026;-83
2024/02/19 08:23:02;;;;;;;86.68;74.25;;;589.10;1433.60;;;;;;4840148;29;20030;-77
2024/02/19 08:25:28;;;;;;;87.05;77.88;;;563.60;1484.80;;;;;;4840561;29;20038;-79
2024/02/19 08:27:54;;;;;;;70.07;62.28;;;563.50;1484.80;;;;;;4839876;29;20438;-79
2024/02/19 08:30:20;;;;;;;67.55;52.47;;;538.50;1484.80;;;;;;4851302;29;20036;-77
2024/02/19 08:32:45;;;;;;;90.82;71.25;;;537.60;1536.00;;;;;;4840692;29;20026;-79
2024/02/19 08:35:11;;;;;;;72.85;63.00;;;537.80;1510.40;;;;;;4840170;29;20030;-80
2024/02/19 08:37:37;;;;;;;76.25;62.40;;;588.80;1459.20;;;;;;4839902;29;20038;-77
2024/02/19 08:40:04;;;;;;;73.43;65.43;;;563.60;1459.20;;;;;;4840139;29;20434;-73
2024/02/19 08:42:36;;;;;;;73.45;65.40;;;512.80;1510.40;;;;;;4840037;29;20033;-80
2024/02/19 08:45:03;;;;;;;67.25;54.47;;;588.90;1459.20;;;;;;4839927;29;20051;-81
2024/02/19 08:47:29;;;;;;;65.93;52.22;;;538.50;1484.80;;;;;;4840167;29;20098;-85
2024/02/19 08:49:55;;;;;;;79.70;66.38;;;537.60;1510.40;;;;;;4839969;29;20388;-75
2024/02/19 08:52:21;;;;;;;96.32;74.43;;;512.50;1510.40;;;;;;4827790;29;20049;-77
2024/02/19 08:54:47;;;;;;;85.38;64.85;;;563.40;1484.80;;;;;;4840102;29;20148;-82
2024/02/19 08:57:14;;;;;;;73.38;57.05;;;512.30;1536.00;;;;;;4827606;29;20120;-79
2024/02/19 08:59:45;;;;;;;67.47;53.25;;;487.00;1587.20;;;;;;4839913;29;20026;-77
2024/02/19 09:02:11;;;;;;;69.53;56.55;;;;;;;;;;4839816;29;20477;-76
2024/02/19 09:04:40;;;;;;;59.90;46.35;;;538.20;1510.40;;;;;;4840060;29;20034;-72
2024/02/19 09:07:06;;;;;;;71.80;54.30;;;537.80;1536.00;;;;;;4839884;29;20112;-89
2024/02/19 09:09:32;;;;;;;71.55;58.28;;;563.50;1510.40;;;;;;4839585;29;20061;-81
2024/02/19 09:11:58;;;;;;;69.13;54.85;;;512.70;1536.00;;;;;;4839891;29;20058;-86
2024/02/19 09:14:26;;;;;;;86.20;59.25;;;537.60;1561.60;;;;;;4838797;29;20072;-72
2024/02/19 09:16:53;;;;;;;66.57;54.70;;;512.70;1536.00;;;;;;4839452;29;20090;-88
2024/02/19 09:19:19;;;;;;;51.92;42.33;;;512.80;1536.00;;;;;;4839757;29;20021;-89
2024/02/19 09:21:45;;;;;;;49.03;39.33;;;512.10;1536.00;;;;;;4839231;29;20112;-89
2024/02/19 09:24:13;;;;;;;55.90;46.85;;;512.50;1561.60;;;;;;4839131;29;20042;-81
2024/02/19 09:26:39;;;;;;;58.90;50.15;;;512.80;1536.00;;;;;;4839674;29;20104;-87
2024/02/19 09:29:06;;;;;;;59.78;49.92;;;537.60;1536.00;;;;;;4839472;29;20029;-83
2024/02/19 09:31:32;;;;;;;49.28;41.92;;;487.20;1587.20;;;;;;4839258;29;20034;-91
2024/02/19 09:33:59;;;;;;;53.00;42.22;;;;;;;;;;4839721;29;20368;-83
2024/02/19 09:36:25;;;;;;;55.20;46.22;;;486.40;1612.80;;;;;;4839653;29;20049;-88
2024/02/19 09:38:53;;;;;;;50.03;43.15;;;461.60;1664.00;;;;;;4839076;29;20023;-72
2024/02/19 09:41:19;;;;;;;68.13;50.47;;;435.90;1689.60;;;;;;4839569;29;20076;-81
2024/02/19 09:43:45;;;;;;;38.38;31.75;;;435.20;1740.80;;;;;;4839398;29;20034;-74
2024/02/19 09:46:22;;;;;;;40.83;32.88;;;410.40;1740.80;;;;;;4839151;29;20398;-84
2024/02/19 09:48:55;;;;;;;73.13;50.30;;;384.90;1766.40;;;;;;4838845;29;20385;-73
2024/02/19 09:51:24;;;;;;;144.93;87.25;;;409.90;1792.00;;;;;;4837633;29;20026;-83
2024/02/19 09:53:51;;;;;;;37.70;27.95;;;384.50;1792.00;;;;;;4838557;29;20502;-71
2024/02/19 09:56:22;;;;;;;25.85;19.77;;;384.60;1817.60;;;;;;4838733;29;20458;-70
2024/02/19 09:58:49;;;;;;;28.23;18.80;;;384.80;1792.00;;;;;;4822233;29;20082;-70
2024/02/19 10:01:15;;;;;;;33.35;24.23;;;409.70;1766.40;;;;;;4816523;29;20034;-72
2024/02/19 10:03:45;;;;;;;31.27;22.42;;;409.70;1766.40;;;;;;4832040;29;20109;-70
2024/02/19 10:06:11;;;;;;;34.50;24.73;;;384.80;1740.80;;;;;;4833045;29;20120;-82
2024/02/19 10:08:37;;;;;;;17.10;13.90;;;384.60;1715.20;;;;;;4837374;29;20097;-74
2024/02/19 10:11:10;;;;;;;17.83;15.13;;;384.40;1689.60;;;;;;4812832;29;20134;-72
2024/02/19 10:13:39;;;;;;;26.55;19.45;;;384.80;1689.60;;;;;;4828844;29;20022;-84
2024/02/19 10:16:09;;;;;;;18.83;14.27;;;384.70;1715.20;;;;;;4838395;29;20041;-70
2024/02/19 10:18:34;;;;;;;22.85;15.90;;;384.90;1715.20;;;;;;4837821;29;20026;-75
2024/02/19 10:21:01;;;;;;;21.40;17.38;;;409.70;1715.20;;;;;;4837124;29;20485;-70
2024/02/19 10:23:27;;;;;;;13.43;9.25;;;384.30;1689.60;;;;;;4838213;29;20029;-75
2024/02/19 10:25:54;;;;;;;12.75;9.40;;;384.20;1689.60;;;;;;4837817;29;20500;-87
2024/02/19 10:28:22;;;;;;;22.38;15.80;;;384.10;1715.20;;;;;;4841096;29;20026;-75
2024/02/19 10:30:48;;;;;;;11.35;8.05;;;384.20;1689.60;;;;;;4841920;29;20038;-82
2024/02/19 10:33:15;;;;;;;64.07;37.80;;;359.30;1715.20;;;;;;4838464;29;20037;-78
2024/02/19 10:35:41;;;;;;;19.95;16.83;;;384.10;1715.20;;;;;;4842288;29;20038;-77
2024/02/19 10:38:09;;;;;;;75.68;49.50;;;384.30;1715.20;;;;;;4840986;29;20033;-85
2024/02/19 10:40:35;;;;;;;39.13;27.67;;;384.40;1715.20;;;;;;4839903;29;20045;-87
2024/02/19 10:43:03;;;;;;;28.98;20.52;;;384.30;1715.20;;;;;;4840779;29;20029;-81
2024/02/19 10:45:30;;;;;;;14.23;10.45;;;384.60;1689.60;;;;;;4841088;29;20096;-78
2024/02/19 10:47:57;;;;;;;17.13;10.63;;;384.40;1715.20;;;;;;4838690;29;20036;-80
2024/02/19 10:50:23;;;;;;;42.20;29.45;;;384.10;1715.20;;;;;;4829759;29;20034;-89
2024/02/19 10:52:51;;;;;;;14.10;8.38;;;384.40;1715.20;;;;;;4834508;29;20117;-76
2024/02/19 10:55:17;;;;;;;13.45;10.00;;;384.60;1715.20;;;;;;4831238;29;20061;-89
2024/02/19 10:57:54;;;;;;;17.73;11.98;;;384.40;1740.80;;;;;;4838577;29;20038;-88
2024/02/19 11:00:25;;;;;;;15.48;11.13;;;384.60;1715.20;;;;;;4838630;29;20100;-89
2024/02/19 11:03:04;;;;;;;22.90;18.15;;;384.20;1715.20;;;;;;4822598;29;20069;-87
2024/02/19 11:05:34;;;;;;;15.88;9.32;;;384.00;1715.20;;;;;;4838355;29;20105;-89
2024/02/19 11:08:02;;;;;;;11.50;8.05;;;384.10;1689.60;;;;;;4838928;29;20026;-86
2024/02/19 11:10:39;;;;;;;17.52;12.20;;;384.10;1689.60;;;;;;4839068;29;20082;-89
2024/02/19 11:13:08;;;;;;;17.45;12.65;;;384.10;1715.20;;;;;;4838680;29;20024;-88
2024/02/19 11:15:41;;;;;;;19.60;12.98;;;384.40;1689.60;;;;;;4835209;29;20118;-81
2024/02/19 11:18:20;;;;;;;19.55;11.55;;;384.40;1689.60;;;;;;4829057;29;20034;-84
2024/02/19 11:20:47;;;;;;;16.10;11.75;;;359.30;1715.20;;;;;;4838660;29;20105;-89
2024/02/19 11:23:16;;;;;;;17.80;10.50;;;384.20;1715.20;;;;;;4838557;29;20037;-88
2024/02/19 11:25:47;;;;;;;11.98;9.93;;;384.10;1689.60;;;;;;4822265;29;20034;-87
2024/02/19 11:28:13;;;;;;;23.73;15.30;;;359.30;1689.60;;;;;;4838511;29;20089;-89
2024/02/19 11:30:39;;;;;;;15.25;11.45;;;384.30;1715.20;;;;;;4838771;29;20117;-89
2024/02/19 11:33:06;;;;;;;11.10;7.53;;;384.60;1689.60;;;;;;4826573;29;20033;-73
2024/02/19 11:35:36;;;;;;;17.45;11.65;;;384.40;1664.00;;;;;;4838882;29;20026;-85
2024/02/19 11:38:02;;;;;;;16.70;10.75;;;384.60;1664.00;;;;;;4828780;29;20110;-83
2024/02/19 11:40:31;;;;;;;16.35;13.48;;;384.80;1638.40;;;;;;4842025;29;20076;-86
2024/02/19 11:43:01;;;;;;;16.48;11.02;;;384.80;1664.00;;;;;;4842238;29;20036;-71
2024/02/19 11:45:31;;;;;;;29.75;19.25;;;384.90;1664.00;;;;;;4841593;29;20034;-74
2024/02/19 11:47:58;;;;;;;15.70;11.18;;;384.30;1689.60;;;;;;4842051;29;20046;-76
2024/02/19 11:50:27;;;;;;;44.90;29.08;;;384.10;1689.60;;;;;;4841821;29;20026;-88
2024/02/19 11:52:55;;;;;;;19.83;12.25;;;384.40;1689.60;;;;;;4845410;29;20629;-83
2024/02/19 11:55:24;;;;;;;18.85;11.65;;;384.10;1689.60;;;;;;4844038;29;20505;-71
2024/02/19 11:57:51;;;;;;;11.07;8.45;;;384.10;1715.20;;;;;;4844935;29;20049;-75
2024/02/19 12:00:17;;;;;;;13.38;10.68;;;384.00;1689.60;;;;;;4845668;29;20208;-71
2024/02/19 12:02:51;;;;;;;17.42;11.70;;;384.10;1689.60;;;;;;4843282;29;20099;-71